createdAt,value
2019-04-14T04:18:03.199Z,1215
2019-04-14T04:21:16.264Z,4225
2019-04-14T04:26:16.599Z,4225
2019-04-14T04:26:21.186Z,7747
2019-04-14T04:31:15.566Z,10757
2019-04-14T04:36:15.764Z,10757
2019-04-14T04:36:20.302Z,14243
2019-04-14T04:41:14.689Z,16300
2019-04-14T04:46:13.453Z,16300
2019-04-14T04:51:13.829Z,18042
2019-04-14T04:56:12.625Z,18767
2019-04-14T05:01:12.372Z,18526
2019-04-14T05:06:11.380Z,19116
2019-04-14T05:11:10.425Z,19556
2019-04-14T05:16:10.705Z,19803
2019-04-14T05:21:10.367Z,20397
2019-04-14T05:26:09.311Z,21434
2019-04-14T05:31:09.677Z,21583
2019-04-14T05:36:08.687Z,21797
2019-04-14T05:41:09.211Z,21755
2019-04-14T05:46:07.716Z,22908
2019-04-14T05:51:08.413Z,24411
2019-04-14T05:51:13.044Z,27351
2019-04-14T05:56:12.146Z,27454
2019-04-14T06:01:11.298Z,27061
2019-04-14T06:06:10.694Z,26827
2019-04-14T06:11:09.817Z,26607
2019-04-14T06:16:09.268Z,26760
2019-04-14T06:21:09.094Z,26822
2019-04-14T06:26:08.114Z,26222
2019-04-14T06:31:08.930Z,25161
2019-04-14T06:36:07.815Z,24084
2019-04-14T06:41:06.766Z,23500
2019-04-14T06:46:06.612Z,23498
2019-04-14T06:51:05.984Z,24644
2019-04-14T06:56:05.206Z,24639
2019-04-14T07:01:05.215Z,24022
2019-04-14T07:06:04.487Z,25126
2019-04-14T07:10:58.810Z,27233
2019-04-14T07:15:58.861Z,27233
2019-04-14T07:20:58.176Z,27777
2019-04-14T07:21:03.148Z,30035
2019-04-14T07:26:02.390Z,29772
2019-04-14T07:31:01.567Z,28265
2019-04-14T07:36:01.684Z,26696
2019-04-14T07:41:00.843Z,26889
2019-04-14T07:46:00.153Z,27222
2019-04-14T07:51:00.125Z,26836
2019-04-14T07:55:59.216Z,26843
2019-04-14T08:00:59.269Z,26059
2019-04-14T08:05:58.372Z,26020
2019-04-14T08:10:58.266Z,25608
2019-04-14T08:15:57.517Z,25785
2019-04-14T08:20:57.612Z,25014
2019-04-14T08:25:56.546Z,25196
2019-04-14T08:30:55.980Z,25668
2019-04-14T08:35:55.921Z,25056
2019-04-14T08:40:55.093Z,25374
2019-04-14T08:45:55.186Z,26287
2019-04-14T08:50:54.555Z,26210
2019-04-14T08:55:53.342Z,26310
2019-04-14T09:00:53.518Z,27058
2019-04-14T09:05:52.698Z,26946
2019-04-14T09:10:52.942Z,26355
2019-04-14T09:15:52.064Z,26180
2019-04-14T09:20:52.778Z,26874
2019-04-14T09:25:50.381Z,26975
2019-04-14T09:30:50.269Z,27096
2019-04-14T09:35:49.413Z,28024
2019-04-14T09:40:49.582Z,28715
2019-04-14T09:45:48.955Z,28449
2019-04-14T09:50:48.857Z,28538
2019-04-14T09:55:48.084Z,29111
2019-04-14T10:00:46.932Z,29638
2019-04-14T10:05:47.269Z,29761
2019-04-14T10:10:46.162Z,29058
2019-04-14T10:15:47.489Z,29095
2019-04-14T10:20:45.743Z,28955
2019-04-14T10:25:45.520Z,29031
2019-04-14T10:30:43.935Z,29280
2019-04-14T10:35:44.035Z,29267
2019-04-14T10:40:43.004Z,28972
2019-04-14T10:45:43.032Z,29043
2019-04-14T10:50:42.273Z,29615
2019-04-14T10:55:42.471Z,29472
2019-04-14T11:00:41.281Z,30446
2019-04-14T11:05:41.459Z,30694
2019-04-14T11:10:40.596Z,30499
2019-04-14T11:15:40.497Z,30106
2019-04-14T11:20:39.619Z,30025
2019-04-14T11:25:39.894Z,29466
2019-04-14T11:30:38.764Z,29449
2019-04-14T11:35:38.651Z,29713
2019-04-14T11:45:39.052Z,30424
2019-04-14T11:50:38.216Z,29643
2019-04-14T11:55:38.259Z,28260
2019-04-14T12:00:37.202Z,27597
2019-04-14T12:05:37.368Z,25747
2019-04-14T12:10:36.292Z,25531
2019-04-14T12:15:36.464Z,25925
2019-04-14T12:20:35.426Z,27906
2019-04-14T12:25:35.443Z,27345
2019-04-14T12:30:35.536Z,27782
2019-04-14T12:35:33.725Z,29389
2019-04-14T12:40:33.753Z,29117
2019-04-14T12:45:32.660Z,29380
2019-04-14T12:50:33.838Z,29264
2019-04-14T12:55:32.150Z,28638
2019-04-14T13:00:31.168Z,29210
2019-04-14T13:05:30.574Z,30060
2019-04-14T13:10:30.444Z,31488
2019-04-14T13:15:29.784Z,32238
2019-04-14T13:20:29.564Z,32711
2019-04-14T13:25:28.934Z,32980
2019-04-14T13:30:28.915Z,33017
2019-04-14T13:35:27.826Z,32919
2019-04-14T13:40:27.022Z,32682
2019-04-14T13:45:27.245Z,32608
2019-04-14T13:50:26.517Z,32406
2019-04-14T13:55:26.517Z,32042
2019-04-14T14:00:25.739Z,31554
2019-04-14T14:05:25.531Z,30878
2019-04-14T14:10:24.431Z,30808
2019-04-14T14:15:23.689Z,30098
2019-04-14T14:20:23.603Z,29463
2019-04-14T14:25:23.480Z,29758
2019-04-14T14:30:22.681Z,29772
2019-04-14T14:35:21.616Z,29707
2019-04-14T14:40:21.667Z,29171
2019-04-14T14:45:20.578Z,28714
2019-04-14T14:50:21.892Z,27690
2019-04-14T14:55:19.752Z,28076
2019-04-14T15:00:19.743Z,28640
2019-04-14T15:05:18.932Z,28689
2019-04-14T15:10:18.932Z,28611
2019-04-14T15:15:18.148Z,28772
2019-04-14T15:20:17.201Z,29519
2019-04-14T15:25:16.628Z,30007
2019-04-14T15:30:16.426Z,30245
2019-04-14T15:35:17.432Z,29877
2019-04-14T15:40:16.605Z,29218
2019-04-14T15:45:15.833Z,27879
2019-04-14T15:50:13.977Z,27946
2019-04-14T15:55:13.102Z,27726
2019-04-14T16:00:12.216Z,27631
2019-04-14T16:05:12.434Z,27720
2019-04-14T16:10:09.058Z,27314
2019-04-14T16:15:07.330Z,26709
2019-04-14T16:20:06.283Z,26760
2019-04-14T16:25:05.428Z,26763
2019-04-14T16:30:05.557Z,26390
2019-04-14T16:35:04.685Z,26281
2019-04-14T16:40:03.923Z,26175
2019-04-14T16:45:02.770Z,25589
2019-04-14T16:50:02.089Z,24644
2019-04-14T16:55:02.123Z,23310
2019-04-14T17:00:01.204Z,21970
2019-04-14T17:05:00.336Z,21925
2019-04-14T17:10:00.613Z,20849
2019-04-14T17:14:59.492Z,20173
2019-04-14T17:19:58.834Z,19697
2019-04-14T17:24:57.822Z,18684
2019-04-14T17:29:56.986Z,18234
2019-04-14T17:34:56.855Z,17650
2019-04-14T17:39:56.317Z,16255
2019-04-14T17:43:32.038Z,14171
2019-04-14T17:48:31.151Z,13477
2019-04-14T17:53:30.197Z,11822
2019-04-14T17:58:30.396Z,10676
2019-04-14T18:03:29.425Z,9231
2019-04-14T18:04:20.710Z,6758
2019-04-14T18:59:53.950Z,13748
